Terminal Aerodrome Forecast
Issued by NWS Greer, SC

Home | Current Version | Previous Version | Text Only | Print | Product List | Glossary On
Versions: 1 2 3 4 5 6 7 8 9 10 11 12 13 14
000
FTUS42 KGSP 220531
TAFAVL
TAF
KAVL 220531Z 2206/2306 00000KT 6SM BR SKC
     FM220800 VRB02KT 5SM BR SCT008
      TEMPO 2209/2213 2SM BR BKN008
     FM221300 34005KT P6SM SCT015
     FM221600 VRB02KT P6SM SCT045 PROB30 2219/2224 4SM -TSRA
      OVC025CB
     FM230300 25003KT P6SM SCT200=

USA.gov is the U.S. government's official web portal to all federal, state and local government web resources and services.